Time;durP1;ratioP1;P1;durP2;ratioP2;P2;SDS_P1;SDS_P2;PMS_P1;PMS_P2;Temp;Humidity;BMP_temperature;BMP_pressure;BME280_temperature;BME280_humidity;BME280_pressure;Samples;Min_cycle;Max_cycle;Signal;HPM_P1;HPM_P2
2023/10/20 00:00:21;;;;;;;18.60;10.02;;;;;;;;;;4974752;28;20026;-64
2023/10/20 00:02:47;;;;;;;20.20;12.63;;;;;;;;;;4974645;28;20042;-64
2023/10/20 00:05:13;;;;;;;21.42;11.85;;;;;;;;;;4974555;28;20031;-63
2023/10/20 00:07:40;;;;;;;28.45;11.15;;;;;;;;;;4974747;28;20414;-63
2023/10/20 00:10:09;;;;;;;40.53;14.55;;;;;;;;;;4974580;28;20066;-64
2023/10/20 00:12:35;;;;;;;23.08;11.75;;;;;;;;;;4973388;28;20034;-64
2023/10/20 00:15:01;;;;;;;49.88;15.35;;;;;;;;;;4974808;28;20073;-64
2023/10/20 00:17:26;;;;;;;56.78;17.02;;;;;;;;;;4974647;28;20037;-65
2023/10/20 00:19:52;;;;;;;26.33;12.68;;;;;;;;;;4970842;28;20503;-64
2023/10/20 00:22:17;;;;;;;20.90;11.68;;;;;;;;;;4955250;28;20035;-64
2023/10/20 00:24:45;;;;;;;21.92;10.02;;;;;;;;;;4955258;28;20023;-64
2023/10/20 00:27:13;;;;;;;19.73;13.05;;;;;;;;;;4955100;28;20027;-64
2023/10/20 00:29:40;;;;;;;20.73;11.38;;;;;;;;;;4955190;28;20030;-64
2023/10/20 00:32:07;;;;;;;20.35;10.57;;;;;;;;;;4954868;28;20047;-63
2023/10/20 00:34:32;;;;;;;17.70;10.30;;;;;;;;;;4969061;28;20034;-64
2023/10/20 00:36:57;;;;;;;19.33;11.38;;;;;;;;;;4974162;28;20480;-64
2023/10/20 00:39:23;;;;;;;23.48;10.25;;;;;;;;;;4973063;28;20429;-64
2023/10/20 00:41:49;;;;;;;13.88;9.07;;;;;;;;;;4974199;28;20464;-64
2023/10/20 00:44:14;;;;;;;16.75;9.88;;;;;;;;;;4974341;28;20041;-63
2023/10/20 00:46:43;;;;;;;18.40;11.07;;;;;;;;;;4973718;28;20026;-64
2023/10/20 00:49:10;;;;;;;14.77;10.10;;;;;;;;;;4973904;28;20117;-63
2023/10/20 00:51:37;;;;;;;14.68;8.65;;;;;;;;;;4974098;28;20025;-63
2023/10/20 00:54:04;;;;;;;15.75;9.55;;;;;;;;;;4974140;28;20101;-64
2023/10/20 00:56:30;;;;;;;16.35;9.18;;;;;;;;;;4974018;28;20065;-64
2023/10/20 00:58:56;;;;;;;15.27;8.82;;;;;;;;;;4974189;28;20122;-64
2023/10/20 01:01:21;;;;;;;13.52;8.57;;;;;;;;;;4974064;28;20031;-64
2023/10/20 01:03:48;;;;;;;14.63;9.18;;;;;;;;;;4973687;28;20097;-64
2023/10/20 01:06:14;;;;;;;15.38;8.65;;;;;;;;;;4974064;28;20031;-64
2023/10/20 01:08:39;;;;;;;13.70;7.47;;;;;;;;;;4974027;28;20018;-64
2023/10/20 01:11:05;;;;;;;12.73;8.27;;;;;;;;;;4973880;28;20037;-66
2023/10/20 01:13:31;;;;;;;13.88;8.43;;;;;;;;;;4973946;28;20045;-63
2023/10/20 01:15:56;;;;;;;11.95;7.28;;;;;;;;;;4973842;28;20043;-63
2023/10/20 01:18:22;;;;;;;16.83;9.50;;;;;;;;;;4973619;28;20023;-64
2023/10/20 01:20:47;;;;;;;19.27;9.73;;;;;;;;;;4962860;28;20031;-64
2023/10/20 01:23:13;;;;;;;16.15;7.90;;;;;;;;;;4954491;28;20039;-64
2023/10/20 01:25:39;;;;;;;15.82;9.30;;;;;;;;;;4954398;28;20078;-64
2023/10/20 01:28:04;;;;;;;14.48;7.63;;;;;;;;;;4954525;28;20027;-64
2023/10/20 01:30:30;;;;;;;11.95;7.20;;;;;;;;;;4954407;28;20028;-63
2023/10/20 01:32:56;;;;;;;11.57;7.43;;;;;;;;;;4955872;28;20052;-64
2023/10/20 01:35:21;;;;;;;8.77;6.63;;;;;;;;;;4973822;28;20058;-64
2023/10/20 01:37:47;;;;;;;9.32;6.45;;;;;;;;;;4973674;28;20035;-64
2023/10/20 01:40:13;;;;;;;10.88;6.60;;;;;;;;;;4973762;28;20030;-64
2023/10/20 01:42:39;;;;;;;11.25;6.63;;;;;;;;;;4973582;28;20033;-63
2023/10/20 01:45:05;;;;;;;11.95;6.13;;;;;;;;;;4973484;28;20031;-64
2023/10/20 01:47:31;;;;;;;9.38;5.63;;;;;;;;;;4973585;28;20139;-64
2023/10/20 01:49:57;;;;;;;9.68;6.22;;;;;;;;;;4973699;28;20031;-63
2023/10/20 01:52:22;;;;;;;8.80;6.28;;;;;;;;;;4973694;28;20033;-65
2023/10/20 01:54:48;;;;;;;11.05;5.30;;;;;;;;;;4973522;28;20031;-62
2023/10/20 01:57:13;;;;;;;8.60;5.32;;;;;;;;;;4973473;28;20041;-63
2023/10/20 01:59:39;;;;;;;10.35;5.47;;;;;;;;;;4976867;28;20030;-63
2023/10/20 02:02:04;;;;;;;9.52;5.95;;;;;;;;;;4976979;28;20026;-63
2023/10/20 02:04:30;;;;;;;10.63;6.15;;;;;;;;;;4977025;28;20023;-63
2023/10/20 02:06:56;;;;;;;8.80;5.82;;;;;;;;;;4976881;28;20027;-63
2023/10/20 02:09:21;;;;;;;10.85;6.07;;;;;;;;;;4976903;28;20027;-63
2023/10/20 02:11:47;;;;;;;8.73;5.22;;;;;;;;;;4976955;28;20158;-63
2023/10/20 02:14:13;;;;;;;9.05;5.30;;;;;;;;;;4976675;28;20065;-63
2023/10/20 02:16:38;;;;;;;9.95;5.93;;;;;;;;;;4976963;28;20027;-65
2023/10/20 02:19:04;;;;;;;9.50;5.88;;;;;;;;;;4976695;28;20023;-63
2023/10/20 02:21:30;;;;;;;8.63;5.78;;;;;;;;;;4960189;28;20035;-63
2023/10/20 02:23:55;;;;;;;12.40;7.60;;;;;;;;;;4957338;28;20443;-64
2023/10/20 02:26:21;;;;;;;9.60;5.78;;;;;;;;;;4957291;28;20046;-62
2023/10/20 02:28:47;;;;;;;11.90;6.43;;;;;;;;;;4957236;28;20030;-64
2023/10/20 02:31:17;;;;;;;10.35;6.40;;;;;;;;;;4957317;28;20034;-64
2023/10/20 02:33:43;;;;;;;8.80;6.10;;;;;;;;;;4972581;28;20130;-64
2023/10/20 02:36:09;;;;;;;10.45;6.20;;;;;;;;;;4975135;28;20451;-64
2023/10/20 02:38:35;;;;;;;9.50;6.07;;;;;;;;;;4976426;28;20106;-62
2023/10/20 02:41:03;;;;;;;13.82;7.75;;;;;;;;;;4976374;28;20062;-63
2023/10/20 02:43:29;;;;;;;12.45;7.85;;;;;;;;;;4975727;28;20050;-64
2023/10/20 02:45:55;;;;;;;10.95;6.22;;;;;;;;;;4976207;28;20229;-65
2023/10/20 02:48:24;;;;;;;11.68;6.60;;;;;;;;;;4976391;28;20105;-64
2023/10/20 02:50:50;;;;;;;10.43;7.78;;;;;;;;;;4976282;28;20035;-64
2023/10/20 02:53:16;;;;;;;12.43;6.63;;;;;;;;;;4976285;28;20037;-65
2023/10/20 02:55:45;;;;;;;9.88;6.72;;;;;;;;;;4976152;28;20023;-64
2023/10/20 02:58:11;;;;;;;11.50;6.75;;;;;;;;;;4975701;28;20042;-64
2023/10/20 03:00:44;;;;;;;10.57;6.53;;;;;;;;;;4976142;28;20026;-64
2023/10/20 03:03:11;;;;;;;8.30;4.82;;;;;;;;;;4975858;28;20070;-64
2023/10/20 03:05:37;;;;;;;10.77;7.57;;;;;;;;;;4974611;28;20539;-64
2023/10/20 03:08:03;;;;;;;10.85;6.30;;;;;;;;;;4975905;28;20039;-63
2023/10/20 03:10:28;;;;;;;9.95;7.25;;;;;;;;;;4975665;28;20027;-64
2023/10/20 03:12:54;;;;;;;11.75;7.88;;;;;;;;;;4975555;28;20153;-63
2023/10/20 03:15:19;;;;;;;8.77;5.63;;;;;;;;;;4975898;28;20482;-64
2023/10/20 03:17:45;;;;;;;10.32;6.90;;;;;;;;;;4975684;28;20035;-64
2023/10/20 03:20:15;;;;;;;8.13;5.68;;;;;;;;;;4969400;28;20424;-63
2023/10/20 03:22:41;;;;;;;12.07;5.90;;;;;;;;;;4956358;28;20035;-64
2023/10/20 03:25:09;;;;;;;10.07;5.82;;;;;;;;;;4956162;28;20051;-63
2023/10/20 03:27:38;;;;;;;9.75;6.60;;;;;;;;;;4955940;29;20035;-64
2023/10/20 03:30:05;;;;;;;10.90;6.47;;;;;;;;;;4956355;28;20122;-64
2023/10/20 03:32:31;;;;;;;8.88;6.28;;;;;;;;;;4955870;29;20046;-64
2023/10/20 03:34:57;;;;;;;9.18;5.75;;;;;;;;;;4973604;28;20101;-64
2023/10/20 03:37:22;;;;;;;9.13;6.43;;;;;;;;;;4975304;28;20031;-65
2023/10/20 03:39:49;;;;;;;9.68;5.85;;;;;;;;;;4974915;28;20357;-64
2023/10/20 03:42:14;;;;;;;12.63;6.75;;;;;;;;;;4975055;28;20027;-65
2023/10/20 03:44:42;;;;;;;11.38;6.03;;;;;;;;;;4975561;28;20027;-64
2023/10/20 03:47:08;;;;;;;10.85;6.30;;;;;;;;;;4975006;28;20087;-64
2023/10/20 03:49:34;;;;;;;10.65;6.88;;;;;;;;;;4975291;28;20158;-64
2023/10/20 03:52:00;;;;;;;9.52;5.57;;;;;;;;;;4975262;28;20019;-63
2023/10/20 03:54:25;;;;;;;11.27;6.53;;;;;;;;;;4975085;28;20110;-64
2023/10/20 03:56:51;;;;;;;10.73;6.07;;;;;;;;;;4974780;28;20484;-64
2023/10/20 03:59:17;;;;;;;13.13;7.57;;;;;;;;;;4974790;28;20118;-65
2023/10/20 04:01:43;;;;;;;21.05;9.60;;;;;;;;;;4974861;28;20109;-65
2023/10/20 04:04:10;;;;;;;17.08;8.82;;;;;;;;;;4974805;28;20030;-65
2023/10/20 04:06:44;;;;;;;17.55;9.25;;;;;;;;;;4974704;28;20050;-64
2023/10/20 04:09:09;;;;;;;14.27;7.07;;;;;;;;;;4974386;28;20484;-65
2023/10/20 04:11:38;;;;;;;13.98;8.15;;;;;;;;;;4974539;28;20082;-64
2023/10/20 04:14:06;;;;;;;16.13;7.63;;;;;;;;;;4974668;28;20035;-64
2023/10/20 04:16:39;;;;;;;10.88;6.30;;;;;;;;;;4974612;28;20034;-64
2023/10/20 04:19:14;;;;;;;10.30;6.43;;;;;;;;;;4974546;28;20027;-63
2023/10/20 04:21:40;;;;;;;9.05;5.07;;;;;;;;;;4956309;28;20031;-63
2023/10/20 04:24:12;;;;;;;9.52;6.82;;;;;;;;;;4955150;28;20031;-63
2023/10/20 04:26:41;;;;;;;9.50;5.07;;;;;;;;;;4955055;28;20027;-63
2023/10/20 04:53:40;;;;;;;10.20;6.22;;;;;;;;;;4974206;28;20129;-65
2023/10/20 04:58:35;;;;;;;9.23;4.50;;;;;;;;;;4973986;28;20062;-65
2023/10/20 05:01:07;;;;;;;10.40;5.43;;;;;;;;;;4973916;28;20057;-65
2023/10/20 05:03:45;;;;;;;9.95;5.60;;;;;;;;;;4973512;28;20026;-64
2023/10/20 05:06:24;;;;;;;9.45;5.80;;;;;;;;;;4973993;28;20062;-64
2023/10/20 05:08:50;;;;;;;10.90;6.60;;;;;;;;;;4973848;28;20102;-65
2023/10/20 05:11:15;;;;;;;8.68;5.85;;;;;;;;;;4973847;28;20449;-65
2023/10/20 05:13:41;;;;;;;13.48;7.53;;;;;;;;;;4973689;28;20034;-64
2023/10/20 05:16:09;;;;;;;17.70;8.70;;;;;;;;;;4974031;28;20034;-64
2023/10/20 05:18:38;;;;;;;13.88;7.45;;;;;;;;;;4973858;28;20488;-65
2023/10/20 05:21:12;;;;;;;9.63;5.55;;;;;;;;;;4960521;28;20082;-64
2023/10/20 05:23:38;;;;;;;9.90;5.20;;;;;;;;;;4954026;28;20049;-65
2023/10/20 05:26:04;;;;;;;11.73;5.70;;;;;;;;;;4954531;28;20106;-65
2023/10/20 05:28:30;;;;;;;13.75;6.63;;;;;;;;;;4954411;28;20027;-66
2023/10/20 05:30:57;;;;;;;14.07;6.97;;;;;;;;;;4954597;28;20056;-65
2023/10/20 05:33:24;;;;;;;10.00;6.10;;;;;;;;;;4962515;28;20459;-65
2023/10/20 05:35:50;;;;;;;8.30;5.53;;;;;;;;;;4977221;28;20065;-65
2023/10/20 05:38:15;;;;;;;8.23;5.32;;;;;;;;;;4977285;28;20028;-65
2023/10/20 05:40:41;;;;;;;10.32;5.45;;;;;;;;;;4977590;28;20075;-65
2023/10/20 05:43:06;;;;;;;10.50;6.10;;;;;;;;;;4977373;28;20057;-63
2023/10/20 05:45:41;;;;;;;9.98;5.75;;;;;;;;;;4977402;28;20066;-65
2023/10/20 05:48:07;;;;;;;9.32;4.22;;;;;;;;;;4976030;28;20023;-64
2023/10/20 05:50:35;;;;;;;9.52;5.75;;;;;;;;;;4977211;28;20051;-64
2023/10/20 05:53:00;;;;;;;12.32;7.35;;;;;;;;;;4976910;28;20059;-64
2023/10/20 05:55:26;;;;;;;9.80;5.07;;;;;;;;;;4976968;28;20081;-65
2023/10/20 05:57:51;;;;;;;9.23;5.13;;;;;;;;;;4977092;28;20163;-65
2023/10/20 06:00:17;;;;;;;10.23;5.75;;;;;;;;;;4977158;28;20110;-64
2023/10/20 06:02:44;;;;;;;11.82;7.05;;;;;;;;;;4977055;28;20212;-65
2023/10/20 06:05:09;;;;;;;8.88;5.60;;;;;;;;;;4975328;28;20023;-64
2023/10/20 06:07:35;;;;;;;7.90;5.80;;;;;;;;;;4976696;28;20357;-65
2023/10/20 06:10:00;;;;;;;8.27;4.50;;;;;;;;;;4976719;28;20035;-65
2023/10/20 06:12:26;;;;;;;8.77;5.78;;;;;;;;;;4976790;28;20062;-65
2023/10/20 06:14:51;;;;;;;7.10;4.93;;;;;;;;;;4976865;28;20029;-65
2023/10/20 06:17:20;;;;;;;8.95;5.57;;;;;;;;;;4976631;28;20030;-65
2023/10/20 06:19:48;;;;;;;7.28;4.90;;;;;;;;;;4973854;28;20038;-65
2023/10/20 06:22:14;;;;;;;6.13;3.90;;;;;;;;;;4957209;28;20059;-65
2023/10/20 06:24:39;;;;;;;8.50;4.68;;;;;;;;;;4957302;28;20463;-65
2023/10/20 06:27:05;;;;;;;7.28;5.20;;;;;;;;;;4957166;28;20492;-65
2023/10/20 06:34:41;;;;;;;;;;;;;;;;;;4976809;28;20034;-65
2023/10/20 06:37:12;;;;;;;8.02;4.72;;;;;;;;;;4976194;28;19943;-65
2023/10/20 06:39:38;;;;;;;9.77;5.22;;;;;;;;;;4976573;28;20030;-65
2023/10/20 06:42:09;;;;;;;5.20;3.15;;;;;;;;;;4969524;28;20059;-64
2023/10/20 06:44:34;;;;;;;;;;;;;;;;;;4981089;28;20030;-65
2023/10/20 06:47:00;;;;;;;8.57;4.13;;;;;;;;;;4977659;28;19918;-64
2023/10/20 06:49:25;;;;;;;14.25;5.45;;;;;;;;;;4979797;28;20041;-65
2023/10/20 06:51:51;;;;;;;17.65;6.60;;;;;;;;;;4975628;28;20538;-65
2023/10/20 06:54:17;;;;;;;9.77;5.55;;;;;;;;;;4975964;28;20034;-64
2023/10/20 06:56:43;;;;;;;10.18;6.05;;;;;;;;;;4975818;28;20033;-65
2023/10/20 06:59:13;;;;;;;21.40;7.47;;;;;;;;;;4974897;28;20041;-65
2023/10/20 07:01:40;;;;;;;43.40;11.80;;;;;;;;;;4979061;28;20023;-65
2023/10/20 07:04:08;;;;;;;20.38;6.60;;;;;;;;;;4987153;28;20096;-64
2023/10/20 07:06:34;;;;;;;8.82;4.25;;;;;;;;;;4975548;28;20030;-65
2023/10/20 07:08:59;;;;;;;36.40;9.07;;;;;;;;;;4986697;28;20023;-63
2023/10/20 07:11:25;;;;;;;53.95;8.90;;;;;;;;;;4995076;28;20044;-64
2023/10/20 07:13:50;;;;;;;14.95;6.18;;;;;;;;;;4994909;28;20018;-64
2023/10/20 07:16:15;;;;;;;12.65;4.65;;;;;;;;;;4993748;28;20535;-64
2023/10/20 07:18:41;;;;;;;7.80;3.50;;;;;;;;;;4975306;28;20077;-65
2023/10/20 07:21:06;;;;;;;7.57;3.72;;;;;;;;;;4975198;28;20488;-65
2023/10/20 07:23:32;;;;;;;8.63;4.03;;;;;;;;;;4975016;28;20086;-64
2023/10/20 07:25:57;;;;;;;6.50;4.20;;;;;;;;;;4975261;28;20026;-65
2023/10/20 07:28:23;;;;;;;6.32;3.63;;;;;;;;;;4975269;28;20034;-64
2023/10/20 07:30:48;;;;;;;6.03;3.90;;;;;;;;;;4975310;28;20030;-64
2023/10/20 07:33:14;;;;;;;5.78;3.55;;;;;;;;;;4974640;28;20510;-65
2023/10/20 07:35:42;;;;;;;6.75;3.95;;;;;;;;;;4994387;28;20046;-65
2023/10/20 07:38:07;;;;;;;8.98;4.55;;;;;;;;;;4979040;28;20144;-64
2023/10/20 07:40:34;;;;;;;7.60;3.67;;;;;;;;;;4975069;28;20065;-65
2023/10/20 07:43:02;;;;;;;7.70;3.70;;;;;;;;;;4974946;28;20035;-65
2023/10/20 07:45:28;;;;;;;6.53;3.80;;;;;;;;;;4969873;28;20151;-65
2023/10/20 07:47:53;;;;;;;9.73;4.10;;;;;;;;;;4955351;28;20078;-65
2023/10/20 07:50:19;;;;;;;10.82;5.05;;;;;;;;;;4955580;28;20058;-65
2023/10/20 07:52:45;;;;;;;12.43;4.50;;;;;;;;;;4955397;28;20031;-64
2023/10/20 07:55:10;;;;;;;5.97;3.92;;;;;;;;;;4954645;28;20034;-64
2023/10/20 07:57:35;;;;;;;24.35;5.55;;;;;;;;;;4955270;28;20019;-64
2023/10/20 08:00:03;;;;;;;38.75;8.45;;;;;;;;;;4955984;28;20023;-64
2023/10/20 08:02:29;;;;;;;11.38;4.60;;;;;;;;;;4974062;28;20093;-64
2023/10/20 08:04:54;;;;;;;6.38;4.07;;;;;;;;;;4974699;28;20023;-64
2023/10/20 08:07:20;;;;;;;10.48;3.63;;;;;;;;;;4974312;28;20033;-63
2023/10/20 08:09:46;;;;;;;9.25;4.10;;;;;;;;;;4974258;28;20391;-63
2023/10/20 08:12:11;;;;;;;8.60;4.03;;;;;;;;;;4974563;28;20445;-64
2023/10/20 08:14:37;;;;;;;5.72;3.33;;;;;;;;;;4974467;28;20114;-64
2023/10/20 08:17:05;;;;;;;6.65;4.22;;;;;;;;;;4972878;28;20114;-65
2023/10/20 08:19:30;;;;;;;5.13;3.13;;;;;;;;;;4974227;28;20026;-64
2023/10/20 08:21:56;;;;;;;11.18;4.35;;;;;;;;;;4974146;28;20054;-64
2023/10/20 08:24:21;;;;;;;7.45;4.00;;;;;;;;;;4974146;28;20399;-64
2023/10/20 08:26:48;;;;;;;8.23;4.43;;;;;;;;;;4974072;28;20046;-65
2023/10/20 08:29:13;;;;;;;6.93;4.20;;;;;;;;;;4974170;28;20019;-64
2023/10/20 08:31:39;;;;;;;8.52;4.88;;;;;;;;;;4973637;28;20030;-64
2023/10/20 08:34:05;;;;;;;7.30;3.53;;;;;;;;;;4973973;28;20166;-64
2023/10/20 08:36:30;;;;;;;5.80;4.03;;;;;;;;;;4973872;28;20033;-64
2023/10/20 08:39:01;;;;;;;6.22;3.90;;;;;;;;;;4974255;28;20023;-64
2023/10/20 08:41:26;;;;;;;9.60;5.38;;;;;;;;;;4973953;28;20042;-65
2023/10/20 08:43:52;;;;;;;9.57;5.00;;;;;;;;;;4973841;28;20039;-64
2023/10/20 08:46:18;;;;;;;12.68;4.88;;;;;;;;;;4973536;28;20109;-63
2023/10/20 08:48:44;;;;;;;6.20;3.67;;;;;;;;;;4955349;28;20033;-64
2023/10/20 08:51:15;;;;;;;4.20;2.78;;;;;;;;;;4954537;28;20524;-64
2023/10/20 08:53:42;;;;;;;8.05;3.72;;;;;;;;;;4954512;28;20027;-64
2023/10/20 08:56:09;;;;;;;6.43;3.85;;;;;;;;;;4954919;28;20474;-64
2023/10/20 08:58:35;;;;;;;4.85;3.20;;;;;;;;;;4954716;28;20054;-64
2023/10/20 09:01:03;;;;;;;5.55;3.65;;;;;;;;;;4959629;28;20022;-64
2023/10/20 09:03:39;;;;;;;5.45;3.67;;;;;;;;;;4973652;28;20035;-64
2023/10/20 09:06:06;;;;;;;6.13;3.25;;;;;;;;;;4973736;28;20034;-64
2023/10/20 09:08:33;;;;;;;6.93;3.88;;;;;;;;;;4979931;28;20484;-64
2023/10/20 09:10:58;;;;;;;5.03;2.38;;;;;;;;;;4980115;28;20520;-64
2023/10/20 09:13:37;;;;;;;3.78;2.83;;;;;;;;;;4978972;28;20105;-64
2023/10/20 09:16:11;;;;;;;6.75;3.45;;;;;;;;;;4979969;28;20491;-64
2023/10/20 09:18:48;;;;;;;7.78;3.33;;;;;;;;;;4980240;28;20035;-63
2023/10/20 09:21:18;;;;;;;4.40;3.33;;;;;;;;;;4991127;28;20026;-63
2023/10/20 09:24:14;;;;;;;4.47;3.17;;;;;;;;;;4979265;28;20035;-64
2023/10/20 09:26:39;;;;;;;6.03;3.90;;;;;;;;;;4971641;28;20039;-63
2023/10/20 09:29:07;;;;;;;4.88;3.83;;;;;;;;;;4979729;28;20022;-64
2023/10/20 09:31:33;;;;;;;5.57;3.13;;;;;;;;;;4979595;28;20069;-64
2023/10/20 09:33:59;;;;;;;4.68;3.33;;;;;;;;;;4979569;28;20038;-63
2023/10/20 09:36:26;;;;;;;6.07;3.33;;;;;;;;;;4979670;28;20038;-65
2023/10/20 09:38:54;;;;;;;6.43;3.35;;;;;;;;;;4980026;28;20030;-64
2023/10/20 09:41:22;;;;;;;5.47;3.70;;;;;;;;;;4979766;28;20027;-64
2023/10/20 09:43:55;;;;;;;4.20;3.10;;;;;;;;;;4979464;28;20026;-64
2023/10/20 09:46:35;;;;;;;4.47;3.10;;;;;;;;;;4979836;28;20030;-63
2023/10/20 09:49:12;;;;;;;8.15;3.50;;;;;;;;;;4961259;28;20110;-64
2023/10/20 09:51:38;;;;;;;5.25;3.45;;;;;;;;;;4960409;28;20035;-64
2023/10/20 09:54:04;;;;;;;4.38;3.30;;;;;;;;;;4960600;28;20484;-65
2023/10/20 09:56:29;;;;;;;3.88;2.42;;;;;;;;;;4960478;28;20038;-63
2023/10/20 09:58:58;;;;;;;6.55;4.20;;;;;;;;;;4960374;28;20090;-65
2023/10/20 10:01:24;;;;;;;10.07;4.47;;;;;;;;;;4968364;28;20387;-64
2023/10/20 10:04:03;;;;;;;6.28;4.20;;;;;;;;;;4979206;28;20110;-64
2023/10/20 10:06:37;;;;;;;7.43;3.45;;;;;;;;;;4979538;28;20079;-65
2023/10/20 10:09:04;;;;;;;3.85;2.63;;;;;;;;;;4979392;28;20018;-65
2023/10/20 10:11:31;;;;;;;5.05;2.50;;;;;;;;;;4979408;28;20037;-65
2023/10/20 10:14:02;;;;;;;5.97;3.80;;;;;;;;;;4979241;28;20118;-63
2023/10/20 10:16:28;;;;;;;14.05;3.70;;;;;;;;;;4979436;28;20026;-65
2023/10/20 10:18:56;;;;;;;5.63;3.75;;;;;;;;;;4976974;28;20022;-64
2023/10/20 10:21:31;;;;;;;4.72;3.65;;;;;;;;;;4976456;28;20113;-64
2023/10/20 10:24:13;;;;;;;4.40;3.05;;;;;;;;;;4976152;28;20081;-64
2023/10/20 10:27:01;;;;;;;5.55;3.80;;;;;;;;;;4976387;28;20062;-64
2023/10/20 10:29:46;;;;;;;9.50;5.75;;;;;;;;;;4976012;28;20019;-64
2023/10/20 10:32:20;;;;;;;5.75;3.92;;;;;;;;;;4976043;28;20054;-64
2023/10/20 10:34:48;;;;;;;5.22;3.22;;;;;;;;;;4976381;28;20373;-64
2023/10/20 10:37:16;;;;;;;4.60;3.28;;;;;;;;;;4975971;28;20022;-64
2023/10/20 10:39:42;;;;;;;6.28;4.22;;;;;;;;;;4976056;28;20089;-65
2023/10/20 10:42:08;;;;;;;5.45;3.53;;;;;;;;;;4975828;28;20494;-64
2023/10/20 10:44:37;;;;;;;4.40;2.72;;;;;;;;;;4975978;28;20038;-65
2023/10/20 10:47:03;;;;;;;4.88;3.72;;;;;;;;;;4975884;28;20110;-65
2023/10/20 10:49:33;;;;;;;5.50;3.17;;;;;;;;;;4956867;28;20046;-65
2023/10/20 10:52:04;;;;;;;3.72;2.45;;;;;;;;;;4956599;28;20079;-65
2023/10/20 10:54:33;;;;;;;4.25;2.85;;;;;;;;;;4956578;28;20046;-64
2023/10/20 10:57:02;;;;;;;4.72;3.30;;;;;;;;;;4956331;28;20492;-65
2023/10/20 10:59:28;;;;;;;4.97;3.55;;;;;;;;;;4956448;28;20039;-65
2023/10/20 11:01:53;;;;;;;5.28;3.42;;;;;;;;;;4968573;28;20027;-65
2023/10/20 11:04:19;;;;;;;6.13;3.47;;;;;;;;;;4975674;28;20035;-65
2023/10/20 11:06:45;;;;;;;6.63;4.00;;;;;;;;;;4975667;28;20030;-64
2023/10/20 11:09:13;;;;;;;6.00;2.58;;;;;;;;;;4975481;28;20062;-64
2023/10/20 11:11:45;;;;;;;6.03;3.20;;;;;;;;;;4975345;28;20054;-64
2023/10/20 11:14:18;;;;;;;5.53;3.13;;;;;;;;;;4975618;28;20031;-64
2023/10/20 11:16:44;;;;;;;6.18;3.58;;;;;;;;;;4975571;28;20034;-64
2023/10/20 11:19:12;;;;;;;4.65;2.90;;;;;;;;;;4975546;28;20027;-64
2023/10/20 11:21:46;;;;;;;5.30;3.63;;;;;;;;;;4975466;28;20022;-64
2023/10/20 11:24:23;;;;;;;7.10;4.00;;;;;;;;;;4975198;28;20039;-64
2023/10/20 11:27:05;;;;;;;5.72;3.17;;;;;;;;;;4975095;28;20170;-64
2023/10/20 11:29:32;;;;;;;6.18;3.40;;;;;;;;;;4975228;28;20034;-65
2023/10/20 11:32:05;;;;;;;7.57;4.15;;;;;;;;;;4975029;28;20046;-65
2023/10/20 11:34:35;;;;;;;15.23;5.85;;;;;;;;;;4975094;28;20098;-65
2023/10/20 11:37:01;;;;;;;10.32;4.28;;;;;;;;;;4974915;28;20037;-65
2023/10/20 11:39:28;;;;;;;16.70;5.78;;;;;;;;;;4975050;28;20493;-64
2023/10/20 11:41:54;;;;;;;10.05;4.60;;;;;;;;;;4974753;28;20057;-63
2023/10/20 11:44:21;;;;;;;7.22;3.22;;;;;;;;;;4974986;28;20030;-64
2023/10/20 11:46:47;;;;;;;10.68;4.38;;;;;;;;;;4974831;28;20027;-65
2023/10/20 11:49:12;;;;;;;8.00;4.20;;;;;;;;;;4965518;28;20517;-64
2023/10/20 11:51:39;;;;;;;9.07;4.15;;;;;;;;;;4955533;28;20035;-64
2023/10/20 11:54:06;;;;;;;9.48;4.10;;;;;;;;;;4955282;28;20041;-65
2023/10/20 11:56:31;;;;;;;7.90;3.47;;;;;;;;;;4955337;29;20031;-64
2023/10/20 11:58:58;;;;;;;7.53;4.25;;;;;;;;;;4955514;28;20393;-64
2023/10/20 12:01:24;;;;;;;8.50;4.18;;;;;;;;;;4963256;28;20029;-66
2023/10/20 12:03:49;;;;;;;6.65;3.55;;;;;;;;;;4974367;28;20496;-64
2023/10/20 12:06:14;;;;;;;7.45;3.47;;;;;;;;;;4974542;28;20122;-64
2023/10/20 12:08:41;;;;;;;5.47;3.53;;;;;;;;;;4974249;28;20026;-64
2023/10/20 12:11:08;;;;;;;6.50;3.60;;;;;;;;;;4974151;28;20042;-64
2023/10/20 12:13:36;;;;;;;9.50;4.68;;;;;;;;;;4973156;28;20100;-64
2023/10/20 12:16:04;;;;;;;6.72;4.22;;;;;;;;;;4974130;28;20022;-65
2023/10/20 12:18:29;;;;;;;6.05;3.58;;;;;;;;;;4974478;28;20452;-64
2023/10/20 12:20:55;;;;;;;7.55;4.25;;;;;;;;;;4974420;28;20022;-64
2023/10/20 12:23:20;;;;;;;6.78;3.67;;;;;;;;;;4973957;28;20034;-64
2023/10/20 12:25:46;;;;;;;6.43;4.18;;;;;;;;;;4975454;28;20058;-64
2023/10/20 12:28:11;;;;;;;8.38;3.50;;;;;;;;;;4979280;28;20037;-66
2023/10/20 12:30:36;;;;;;;6.13;3.33;;;;;;;;;;4975940;28;20034;-64
2023/10/20 12:33:02;;;;;;;4.10;3.22;;;;;;;;;;4975286;28;20055;-65
2023/10/20 12:35:27;;;;;;;7.70;3.58;;;;;;;;;;4973982;28;20023;-65
2023/10/20 12:37:53;;;;;;;8.05;4.05;;;;;;;;;;4973021;28;20516;-63
2023/10/20 12:40:18;;;;;;;5.78;3.63;;;;;;;;;;4973970;28;20026;-63
2023/10/20 12:42:44;;;;;;;5.93;3.78;;;;;;;;;;4973079;28;20042;-64
2023/10/20 12:45:10;;;;;;;9.57;3.95;;;;;;;;;;4975082;28;20106;-64
2023/10/20 12:47:36;;;;;;;26.08;6.60;;;;;;;;;;4973848;28;20038;-65
2023/10/20 12:50:03;;;;;;;28.40;7.10;;;;;;;;;;4966224;28;20384;-65
2023/10/20 12:52:28;;;;;;;7.38;3.08;;;;;;;;;;4954123;28;20058;-64
2023/10/20 12:54:54;;;;;;;8.00;4.55;;;;;;;;;;4954499;28;20079;-65
2023/10/20 12:57:20;;;;;;;8.73;4.15;;;;;;;;;;4954390;28;20019;-65
2023/10/20 12:59:45;;;;;;;8.50;4.80;;;;;;;;;;4954423;28;20110;-65
2023/10/20 13:02:10;;;;;;;3.88;2.42;;;;;;;;;;4970507;28;20053;-65
2023/10/20 13:04:36;;;;;;;7.20;4.90;;;;;;;;;;4973585;28;20030;-65
2023/10/20 13:07:04;;;;;;;4.45;2.80;;;;;;;;;;4973327;28;20042;-65
2023/10/20 13:09:30;;;;;;;6.05;3.63;;;;;;;;;;4973756;28;20476;-65
2023/10/20 13:11:58;;;;;;;4.70;3.58;;;;;;;;;;4973713;28;20038;-64
2023/10/20 13:14:24;;;;;;;4.82;3.38;;;;;;;;;;4973677;28;20070;-64
2023/10/20 13:16:50;;;;;;;10.27;4.03;;;;;;;;;;4973611;28;20488;-63
2023/10/20 13:19:16;;;;;;;3.38;2.45;;;;;;;;;;4973579;28;20037;-64
2023/10/20 13:21:42;;;;;;;7.63;3.60;;;;;;;;;;4973067;28;20388;-65
2023/10/20 13:24:08;;;;;;;3.65;2.55;;;;;;;;;;4973377;28;20026;-64
2023/10/20 13:26:33;;;;;;;3.63;2.60;;;;;;;;;;4973494;28;20031;-64
2023/10/20 13:28:59;;;;;;;6.25;3.72;;;;;;;;;;4973293;28;20029;-65
2023/10/20 13:31:26;;;;;;;5.47;3.78;;;;;;;;;;4973501;28;20037;-64
2023/10/20 13:33:51;;;;;;;6.10;3.58;;;;;;;;;;4973264;28;20035;-65
2023/10/20 13:36:17;;;;;;;5.93;3.35;;;;;;;;;;4974991;28;20525;-64
2023/10/20 13:38:43;;;;;;;7.60;4.25;;;;;;;;;;4973305;28;20119;-64
2023/10/20 13:41:08;;;;;;;7.07;3.65;;;;;;;;;;4973397;28;20050;-65
2023/10/20 13:43:34;;;;;;;8.10;4.18;;;;;;;;;;4973342;28;20034;-64
2023/10/20 13:45:59;;;;;;;6.70;4.70;;;;;;;;;;4973305;28;20110;-64
2023/10/20 13:48:25;;;;;;;7.13;5.43;;;;;;;;;;4973215;28;20030;-64
2023/10/20 13:50:51;;;;;;;7.00;5.10;;;;;;;;;;4961270;28;20031;-64
2023/10/20 13:53:16;;;;;;;6.07;4.65;;;;;;;;;;4954207;28;20208;-64
2023/10/20 13:55:43;;;;;;;6.25;4.78;;;;;;;;;;4957345;28;20062;-63
2023/10/20 13:58:09;;;;;;;6.55;3.90;;;;;;;;;;4957141;28;20035;-64
2023/10/20 14:00:35;;;;;;;5.35;4.20;;;;;;;;;;4959015;28;20027;-64
2023/10/20 14:03:01;;;;;;;11.23;5.95;;;;;;;;;;4969820;28;20035;-65
2023/10/20 14:05:29;;;;;;;6.18;4.50;;;;;;;;;;4957331;28;20031;-65
2023/10/20 14:08:00;;;;;;;4.88;2.85;;;;;;;;;;4957429;29;20031;-65
2023/10/20 14:10:27;;;;;;;7.47;4.65;;;;;;;;;;4957442;28;20023;-64
2023/10/20 14:12:53;;;;;;;16.10;7.32;;;;;;;;;;4957574;28;20039;-64
2023/10/20 14:15:20;;;;;;;13.40;6.47;;;;;;;;;;4957248;28;20112;-64
2023/10/20 14:17:46;;;;;;;10.00;5.22;;;;;;;;;;4957228;28;20119;-64
2023/10/20 14:20:12;;;;;;;6.97;4.30;;;;;;;;;;4956904;28;20107;-65
2023/10/20 14:22:37;;;;;;;7.40;4.72;;;;;;;;;;4956758;28;20027;-65
2023/10/20 14:25:03;;;;;;;6.57;4.68;;;;;;;;;;4957021;28;20039;-64
2023/10/20 14:27:33;;;;;;;7.95;4.03;;;;;;;;;;4973921;28;20023;-64
2023/10/20 14:29:59;;;;;;;7.45;4.55;;;;;;;;;;4976316;28;20038;-64
2023/10/20 14:32:24;;;;;;;7.18;4.80;;;;;;;;;;4975891;28;20070;-64
2023/10/20 14:34:50;;;;;;;6.40;4.15;;;;;;;;;;4975781;28;20031;-64
2023/10/20 14:37:16;;;;;;;5.75;3.90;;;;;;;;;;4977813;28;20046;-64
2023/10/20 14:39:42;;;;;;;4.20;3.38;;;;;;;;;;4976164;28;20038;-64
2023/10/20 14:42:07;;;;;;;3.33;2.65;;;;;;;;;;4976221;28;20022;-64
2023/10/20 14:44:33;;;;;;;6.22;4.00;;;;;;;;;;4974597;28;20035;-64
2023/10/20 14:46:58;;;;;;;6.30;4.07;;;;;;;;;;4976021;28;20472;-64
2023/10/20 14:49:24;;;;;;;6.60;4.13;;;;;;;;;;4975873;28;20107;-63
2023/10/20 14:51:49;;;;;;;9.35;5.97;;;;;;;;;;4961547;28;20401;-64
2023/10/20 14:54:15;;;;;;;9.18;4.95;;;;;;;;;;4956587;28;20496;-65
2023/10/20 14:56:41;;;;;;;5.93;3.88;;;;;;;;;;4956653;28;20027;-64
2023/10/20 14:59:06;;;;;;;7.20;4.63;;;;;;;;;;4956598;28;20098;-63
2023/10/20 15:01:33;;;;;;;6.55;4.32;;;;;;;;;;4956418;28;20035;-64
2023/10/20 15:03:59;;;;;;;5.65;3.63;;;;;;;;;;4970672;28;20197;-64
2023/10/20 15:06:25;;;;;;;7.40;4.97;;;;;;;;;;4975346;28;20070;-64
2023/10/20 15:08:51;;;;;;;5.65;3.85;;;;;;;;;;4975694;28;20085;-65